Time;durP1;ratioP1;P1;durP2;ratioP2;P2;SDS_P1;SDS_P2;PMS_P1;PMS_P2;Temp;Humidity;BMP_temperature;BMP_pressure;BME280_temperature;BME280_humidity;BME280_pressure;Samples;Min_cycle;Max_cycle;Signal;HPM_P1;HPM_P2
2020/12/10 00:02:11;;;;;;;29.80;17.27;;;2.10;99.90;;;;;;5067191;28;20474;-66
2020/12/10 00:04:37;;;;;;;29.37;17.60;;;2.10;99.90;;;;;;5068330;28;20534;-66
2020/12/10 00:07:04;;;;;;;26.70;17.77;;;2.10;99.90;;;;;;5068234;28;20864;-65
2020/12/10 00:09:30;;;;;;;30.97;18.77;;;2.00;99.90;;;;;;5067963;28;20931;-66
2020/12/10 00:11:57;;;;;;;28.00;19.40;;;2.00;99.90;;;;;;5067027;28;20524;-65
2020/12/10 00:14:23;;;;;;;32.50;19.93;;;2.00;99.90;;;;;;5069093;28;20522;-65
2020/12/10 00:16:49;;;;;;;29.17;18.30;;;2.00;99.90;;;;;;5068114;28;20440;-65
2020/12/10 00:19:16;;;;;;;26.90;15.70;;;2.00;99.90;;;;;;5069038;28;20435;-65
2020/12/10 00:21:43;;;;;;;28.43;18.43;;;2.00;99.90;;;;;;5068322;28;20566;-65
2020/12/10 00:24:09;;;;;;;29.47;18.60;;;2.00;99.90;;;;;;5068873;28;20972;-66
2020/12/10 00:26:36;;;;;;;34.00;21.30;;;2.00;99.90;;;;;;5068877;28;20521;-65
2020/12/10 00:29:02;;;;;;;27.93;17.03;;;2.10;99.90;;;;;;5069188;28;20442;-64
2020/12/10 00:31:28;;;;;;;27.03;17.10;;;2.10;99.90;;;;;;5068156;28;20977;-65
2020/12/10 00:33:55;;;;;;;25.70;17.10;;;2.00;99.90;;;;;;5068895;28;20550;-65
2020/12/10 00:36:22;;;;;;;26.33;17.53;;;2.10;99.90;;;;;;5069045;28;20451;-65
2020/12/10 00:38:48;;;;;;;29.87;17.63;;;2.00;99.90;;;;;;5068750;28;20534;-65
2020/12/10 00:41:15;;;;;;;31.90;18.80;;;2.00;99.90;;;;;;5067952;28;20439;-65
2020/12/10 00:43:41;;;;;;;29.23;17.67;;;2.00;99.90;;;;;;5068857;28;20518;-66
2020/12/10 00:46:07;;;;;;;32.27;19.83;;;2.00;99.90;;;;;;5068902;28;20427;-65
2020/12/10 00:48:34;;;;;;;29.90;17.40;;;2.00;99.90;;;;;;5068938;28;20467;-66
2020/12/10 00:51:01;;;;;;;24.30;16.37;;;2.10;99.90;;;;;;5068991;28;20443;-64
2020/12/10 00:53:29;;;;;;;26.40;17.23;;;2.00;99.90;;;;;;5072212;28;20465;-66
2020/12/10 00:55:55;;;;;;;30.47;18.53;;;2.00;99.90;;;;;;5072303;28;20993;-64
2020/12/10 00:58:22;;;;;;;32.70;20.50;;;2.10;99.90;;;;;;5072575;28;20533;-65
2020/12/10 01:00:49;;;;;;;28.93;20.20;;;2.10;99.90;;;;;;5071494;28;20443;-65
2020/12/10 01:03:15;;;;;;;32.97;20.80;;;2.10;99.90;;;;;;5072175;28;20490;-64
2020/12/10 01:05:41;;;;;;;33.40;19.40;;;2.20;99.90;;;;;;5072120;28;20445;-65
2020/12/10 01:08:08;;;;;;;34.50;20.30;;;2.20;99.90;;;;;;5072120;28;20439;-65
2020/12/10 01:10:35;;;;;;;33.13;19.90;;;2.20;99.90;;;;;;5071393;28;20449;-66
2020/12/10 01:13:01;;;;;;;35.57;21.40;;;2.10;99.90;;;;;;5072205;28;20562;-65
2020/12/10 01:15:28;;;;;;;32.60;21.90;;;2.10;99.90;;;;;;5072329;28;21075;-65
2020/12/10 01:17:54;;;;;;;35.23;21.50;;;2.10;99.90;;;;;;5072444;28;21015;-66
2020/12/10 01:20:21;;;;;;;33.70;19.90;;;2.10;99.90;;;;;;5072047;28;20562;-65
2020/12/10 01:22:47;;;;;;;40.53;21.80;;;2.10;99.90;;;;;;5072104;28;20459;-65
2020/12/10 01:25:14;;;;;;;32.40;20.20;;;2.20;99.90;;;;;;5071813;28;20423;-64
2020/12/10 01:27:44;;;;;;;28.87;20.77;;;2.10;99.90;;;;;;5071964;28;20469;-66
2020/12/10 01:30:10;;;;;;;35.67;20.50;;;2.00;99.90;;;;;;5071384;28;20522;-64
2020/12/10 01:32:37;;;;;;;30.77;18.63;;;2.00;99.90;;;;;;5071823;28;20831;-66
2020/12/10 01:35:03;;;;;;;29.10;20.43;;;2.00;99.90;;;;;;5071783;28;20572;-65
2020/12/10 01:37:30;;;;;;;32.50;21.10;;;1.90;99.90;;;;;;5071859;28;20435;-65
2020/12/10 01:39:56;;;;;;;30.80;19.50;;;1.90;99.90;;;;;;5071273;28;20818;-65
2020/12/10 01:42:22;;;;;;;33.13;19.83;;;2.00;99.90;;;;;;5071554;28;21053;-64
2020/12/10 01:44:50;;;;;;;34.27;21.20;;;2.00;99.90;;;;;;5071879;28;21156;-65
2020/12/10 01:47:17;;;;;;;30.00;19.33;;;2.00;99.90;;;;;;5071799;28;20534;-65
2020/12/10 01:49:44;;;;;;;35.13;21.10;;;1.90;99.90;;;;;;5071662;28;20796;-64
2020/12/10 01:52:10;;;;;;;32.50;21.17;;;1.90;99.90;;;;;;5070697;28;20499;-64
2020/12/10 01:54:37;;;;;;;37.63;20.37;;;1.90;99.90;;;;;;5071802;28;20566;-65
2020/12/10 01:57:03;;;;;;;35.23;20.80;;;1.90;99.90;;;;;;5071473;28;20443;-66
2020/12/10 01:59:30;;;;;;;36.87;22.43;;;1.80;99.90;;;;;;5071544;28;20818;-65
2020/12/10 02:01:57;;;;;;;37.03;20.83;;;1.90;99.90;;;;;;5070332;28;20471;-66
2020/12/10 02:04:29;;;;;;;34.63;19.60;;;1.90;99.90;;;;;;5070781;28;20445;-64
2020/12/10 02:06:56;;;;;;;38.10;21.80;;;1.90;99.90;;;;;;5071059;28;20559;-66
2020/12/10 02:09:23;;;;;;;34.53;19.93;;;1.90;99.90;;;;;;5071265;28;20445;-64
2020/12/10 02:11:49;;;;;;;39.53;21.00;;;1.80;99.90;;;;;;5070374;28;20557;-64
2020/12/10 02:14:16;;;;;;;38.23;21.80;;;1.90;99.90;;;;;;5070788;28;20449;-66
2020/12/10 02:16:42;;;;;;;36.70;22.53;;;1.90;99.90;;;;;;5070755;28;20447;-66
2020/12/10 02:19:10;;;;;;;41.00;22.20;;;1.90;99.90;;;;;;5070865;28;20443;-64
2020/12/10 02:21:36;;;;;;;33.93;21.80;;;2.00;99.90;;;;;;5070185;28;20467;-66
2020/12/10 02:24:11;;;;;;;36.10;22.50;;;2.00;99.90;;;;;;5070469;28;20451;-65
2020/12/10 02:26:37;;;;;;;37.03;20.03;;;2.10;99.90;;;;;;5070579;28;20443;-65
2020/12/10 02:29:04;;;;;;;39.50;22.23;;;2.10;99.90;;;;;;5070395;28;20439;-65
2020/12/10 02:31:32;;;;;;;35.13;21.47;;;2.20;99.90;;;;;;5069548;28;20562;-65
2020/12/10 02:33:59;;;;;;;34.03;20.60;;;2.20;99.90;;;;;;5070209;28;20997;-65
2020/12/10 02:36:26;;;;;;;34.67;20.90;;;2.20;99.90;;;;;;5070230;28;20479;-65
2020/12/10 02:38:52;;;;;;;33.97;21.57;;;2.20;99.90;;;;;;5070566;28;20457;-65
2020/12/10 02:41:19;;;;;;;30.90;20.13;;;2.20;99.90;;;;;;5069476;28;20447;-65
2020/12/10 02:43:46;;;;;;;39.20;21.60;;;2.20;99.90;;;;;;5070165;28;20449;-65
2020/12/10 02:46:12;;;;;;;39.37;21.33;;;2.20;99.90;;;;;;5070010;28;20439;-65
2020/12/10 02:48:39;;;;;;;32.43;20.93;;;2.20;99.90;;;;;;5070217;28;20441;-66
2020/12/10 02:51:06;;;;;;;33.83;20.30;;;2.20;99.90;;;;;;5069389;28;20439;-66
2020/12/10 02:53:35;;;;;;;36.83;22.20;;;2.20;99.90;;;;;;5070033;28;20493;-65
2020/12/10 02:56:06;;;;;;;34.07;21.10;;;2.20;99.90;;;;;;5069786;28;20896;-64
2020/12/10 02:58:33;;;;;;;37.67;23.57;;;2.20;99.90;;;;;;5069959;28;20817;-64
2020/12/10 03:01:00;;;;;;;37.63;21.40;;;2.10;99.90;;;;;;5069181;28;20447;-65
2020/12/10 03:03:26;;;;;;;36.70;21.83;;;2.20;99.90;;;;;;5069716;28;20555;-64
2020/12/10 03:05:52;;;;;;;36.57;23.10;;;2.20;99.90;;;;;;5069797;28;20815;-64
2020/12/10 03:08:19;;;;;;;35.83;21.83;;;2.30;99.90;;;;;;5069553;28;20565;-64
2020/12/10 03:10:45;;;;;;;30.83;19.23;;;2.20;99.90;;;;;;5068950;28;20945;-66
2020/12/10 03:13:11;;;;;;;35.40;20.40;;;2.20;99.90;;;;;;5069456;28;20459;-66
2020/12/10 03:15:38;;;;;;;29.37;20.03;;;2.20;99.90;;;;;;5069790;28;20475;-65
2020/12/10 03:18:06;;;;;;;34.80;20.27;;;2.20;99.90;;;;;;5069602;28;21027;-65
2020/12/10 03:20:33;;;;;;;34.27;20.30;;;2.20;99.90;;;;;;5068673;28;20439;-64
2020/12/10 03:22:59;;;;;;;34.70;21.37;;;2.00;99.90;;;;;;5069410;28;20502;-65
2020/12/10 03:25:26;;;;;;;33.13;21.20;;;2.00;99.90;;;;;;5035172;28;20533;-65
2020/12/10 03:27:52;;;;;;;36.33;21.73;;;1.90;99.90;;;;;;5051783;28;20454;-64
2020/12/10 03:30:18;;;;;;;37.03;20.33;;;2.00;99.90;;;;;;5068978;28;20449;-66
2020/12/10 03:32:46;;;;;;;37.67;21.13;;;2.10;99.90;;;;;;5069287;28;20474;-64
2020/12/10 03:35:12;;;;;;;37.57;23.00;;;2.20;99.90;;;;;;5069387;28;21060;-64
2020/12/10 03:37:38;;;;;;;34.43;22.37;;;2.10;99.90;;;;;;5069294;28;20453;-66
2020/12/10 03:40:05;;;;;;;38.03;21.73;;;2.10;99.90;;;;;;5068195;28;20526;-65
2020/12/10 03:42:32;;;;;;;35.00;21.70;;;2.20;99.90;;;;;;5067712;28;20542;-65
2020/12/10 03:44:58;;;;;;;37.27;22.23;;;2.20;99.90;;;;;;5069006;28;20446;-65
2020/12/10 03:47:25;;;;;;;36.20;21.33;;;2.20;99.90;;;;;;5069699;28;20569;-65
2020/12/10 03:49:52;;;;;;;32.60;19.93;;;2.20;99.90;;;;;;5070562;28;20534;-66
2020/12/10 03:52:19;;;;;;;35.10;21.13;;;2.10;99.90;;;;;;5070470;28;20459;-66
2020/12/10 03:54:45;;;;;;;32.07;20.50;;;2.20;99.90;;;;;;5069942;28;20478;-66
2020/12/10 03:57:12;;;;;;;35.40;20.60;;;2.20;99.90;;;;;;5068975;28;20453;-65
2020/12/10 03:59:38;;;;;;;36.23;21.70;;;2.30;99.90;;;;;;5069323;28;20814;-64
2020/12/10 04:02:04;;;;;;;31.57;20.10;;;2.20;99.90;;;;;;5068310;28;20463;-65
2020/12/10 04:04:31;;;;;;;37.17;21.97;;;2.20;99.90;;;;;;5068952;28;20530;-65
2020/12/10 04:06:58;;;;;;;30.80;19.60;;;2.20;99.90;;;;;;5068930;28;20973;-65
2020/12/10 04:09:24;;;;;;;31.70;21.17;;;2.20;99.90;;;;;;5068870;28;20534;-65
2020/12/10 04:11:51;;;;;;;35.10;20.00;;;2.10;99.90;;;;;;5068153;28;20462;-65
2020/12/10 04:14:17;;;;;;;31.50;18.73;;;2.10;99.90;;;;;;5068812;28;20448;-65
2020/12/10 04:16:43;;;;;;;32.67;19.27;;;2.10;99.90;;;;;;5068946;28;20483;-65
2020/12/10 04:19:10;;;;;;;28.97;18.57;;;2.00;99.90;;;;;;5069237;28;20442;-66
2020/12/10 04:21:36;;;;;;;28.83;18.67;;;2.10;99.90;;;;;;5068825;28;20462;-66
2020/12/10 04:24:03;;;;;;;30.37;19.80;;;2.20;99.90;;;;;;5069472;28;20542;-65
2020/12/10 04:26:30;;;;;;;30.67;20.37;;;2.10;99.90;;;;;;5071462;28;20439;-65
2020/12/10 04:28:56;;;;;;;31.70;19.00;;;2.10;99.90;;;;;;5073983;28;20534;-67
2020/12/10 04:31:23;;;;;;;32.70;20.23;;;2.00;99.90;;;;;;5074356;28;21052;-65
2020/12/10 04:33:49;;;;;;;34.30;19.07;;;2.00;99.90;;;;;;5074680;28;20486;-66
2020/12/10 04:36:15;;;;;;;31.87;18.80;;;2.00;99.90;;;;;;5073683;28;20478;-65
2020/12/10 04:38:42;;;;;;;35.13;19.97;;;2.10;99.90;;;;;;5074028;28;20523;-65
2020/12/10 04:41:11;;;;;;;28.90;18.20;;;2.20;99.90;;;;;;5072045;28;20906;-64
2020/12/10 04:43:40;;;;;;;30.67;20.73;;;2.20;99.90;;;;;;5072548;28;20478;-66
2020/12/10 04:46:09;;;;;;;28.63;19.13;;;2.30;99.90;;;;;;5072661;28;20465;-64
2020/12/10 04:48:36;;;;;;;34.47;21.53;;;2.30;99.90;;;;;;5072379;28;20443;-65
2020/12/10 04:51:06;;;;;;;34.90;20.70;;;2.30;99.90;;;;;;5071497;28;20445;-66
2020/12/10 04:53:36;;;;;;;35.10;21.03;;;2.30;99.90;;;;;;5072233;28;20466;-65
2020/12/10 04:56:05;;;;;;;31.67;20.30;;;2.20;99.90;;;;;;5072579;28;20509;-66
2020/12/10 04:58:32;;;;;;;33.10;20.87;;;2.30;99.90;;;;;;5071846;28;20445;-67
2020/12/10 05:01:00;;;;;;;33.40;20.77;;;2.20;99.90;;;;;;5071384;28;21033;-65
2020/12/10 05:03:27;;;;;;;27.07;19.63;;;2.20;99.90;;;;;;5072082;28;20482;-65
2020/12/10 05:05:53;;;;;;;34.90;21.43;;;2.20;99.90;;;;;;5071949;28;20439;-65
2020/12/10 05:08:30;;;;;;;33.63;21.40;;;2.10;99.90;;;;;;5071947;28;20884;-68
2020/12/10 05:10:57;;;;;;;32.23;20.77;;;2.10;99.90;;;;;;5071271;28;20546;-66
2020/12/10 05:13:24;;;;;;;33.37;20.47;;;2.20;99.90;;;;;;5071827;28;20470;-67
2020/12/10 05:15:51;;;;;;;34.83;23.00;;;2.20;99.90;;;;;;5072095;28;20475;-64
2020/12/10 05:18:18;;;;;;;35.53;22.97;;;2.20;99.90;;;;;;5071814;28;20810;-67
2020/12/10 05:20:47;;;;;;;34.90;21.90;;;2.20;99.90;;;;;;5071165;28;20546;-65
2020/12/10 05:23:16;;;;;;;38.67;23.90;;;2.20;99.90;;;;;;5071811;28;20466;-64
2020/12/10 05:25:50;;;;;;;36.20;22.03;;;2.10;99.90;;;;;;5071777;28;20999;-64
2020/12/10 05:28:17;;;;;;;39.53;23.03;;;2.20;99.90;;;;;;5071764;28;20435;-65
2020/12/10 05:30:44;;;;;;;36.20;23.70;;;2.30;99.90;;;;;;5070826;28;20501;-65
2020/12/10 05:33:13;;;;;;;37.07;22.97;;;2.30;99.90;;;;;;5071631;28;20494;-65
2020/12/10 05:35:40;;;;;;;37.23;24.03;;;2.20;99.90;;;;;;5071537;28;20566;-65
2020/12/10 05:38:13;;;;;;;37.43;24.53;;;2.30;99.90;;;;;;5070277;28;20759;-66
2020/12/10 05:40:40;;;;;;;34.80;24.33;;;2.30;99.90;;;;;;5070927;28;20445;-65
2020/12/10 05:43:07;;;;;;;39.33;24.47;;;2.30;99.90;;;;;;5071036;28;20499;-67
2020/12/10 05:45:38;;;;;;;42.07;24.40;;;2.30;99.90;;;;;;5069906;28;20859;-66
2020/12/10 05:48:05;;;;;;;34.70;22.60;;;2.30;99.90;;;;;;5071372;28;20878;-68
2020/12/10 05:50:36;;;;;;;38.63;26.30;;;2.30;99.90;;;;;;5070453;28;20447;-66
2020/12/10 05:53:08;;;;;;;39.60;24.13;;;2.40;99.90;;;;;;5071282;28;20466;-65
2020/12/10 05:55:37;;;;;;;39.30;24.30;;;2.40;99.90;;;;;;5070955;28;21038;-67
2020/12/10 05:58:04;;;;;;;37.43;24.40;;;2.40;99.90;;;;;;5070976;28;20475;-71
2020/12/10 06:00:31;;;;;;;36.70;23.37;;;2.40;99.90;;;;;;5070252;28;20454;-66
2020/12/10 06:02:59;;;;;;;37.03;22.63;;;2.40;99.90;;;;;;5070914;28;20547;-67
2020/12/10 06:05:25;;;;;;;41.67;22.33;;;2.40;99.90;;;;;;5071044;28;20538;-68
2020/12/10 06:08:01;;;;;;;38.57;23.63;;;2.40;99.90;;;;;;5070844;28;20443;-69
2020/12/10 06:13:09;;;;;;;32.10;21.53;;;2.40;99.90;;;;;;5063964;28;20459;-66
2020/12/10 06:15:37;;;;;;;32.33;21.57;;;2.40;99.90;;;;;;5069893;28;20475;-68
2020/12/10 06:18:06;;;;;;;32.80;21.17;;;2.40;99.90;;;;;;5070533;28;20443;-67
2020/12/10 06:20:45;;;;;;;34.40;21.97;;;2.30;99.90;;;;;;5068657;28;20940;-66
2020/12/10 06:23:35;;;;;;;35.30;22.03;;;2.30;99.90;;;;;;5070323;28;20566;-67
2020/12/10 06:26:42;;;;;;;35.00;21.77;;;2.20;99.90;;;;;;5070485;28;20725;-66
2020/12/10 06:29:20;;;;;;;34.27;22.00;;;2.20;99.90;;;;;;5063261;28;21041;-78
2020/12/10 06:32:10;;;;;;;37.80;22.40;;;2.20;99.90;;;;;;5072421;28;20541;-79
2020/12/10 06:35:15;;;;;;;37.70;24.43;;;2.20;99.90;;;;;;5075643;28;20539;-80
2020/12/10 06:37:48;;;;;;;33.17;21.87;;;2.30;99.90;;;;;;5070000;28;20541;-76
2020/12/10 06:40:29;;;;;;;35.33;22.03;;;2.40;99.90;;;;;;5069869;28;20506;-77
2020/12/10 06:42:55;;;;;;;34.47;21.70;;;2.30;99.90;;;;;;5071442;28;20462;-77
2020/12/10 06:45:26;;;;;;;35.00;21.13;;;2.30;99.90;;;;;;5071138;28;20499;-76
2020/12/10 06:47:54;;;;;;;38.40;23.83;;;2.30;99.90;;;;;;5071304;28;20447;-76
2020/12/10 06:50:22;;;;;;;33.90;21.30;;;2.30;99.90;;;;;;5052991;28;20443;-76
2020/12/10 06:53:16;;;;;;;32.47;21.07;;;2.30;99.90;;;;;;5079059;28;20879;-75
2020/12/10 06:56:13;;;;;;;33.23;20.67;;;2.40;99.90;;;;;;5077644;28;20519;-75
2020/12/10 06:58:55;;;;;;;30.60;18.67;;;2.40;99.90;;;;;;5073835;28;20430;-76
2020/12/10 07:01:26;;;;;;;28.83;19.87;;;2.40;99.90;;;;;;5069599;28;20525;-69
2020/12/10 07:03:55;;;;;;;33.13;21.43;;;2.30;99.90;;;;;;5068808;28;20465;-67
2020/12/10 07:06:22;;;;;;;35.23;21.20;;;2.30;99.90;;;;;;5070052;28;21227;-68
2020/12/10 07:09:04;;;;;;;31.00;21.13;;;2.30;99.90;;;;;;5052391;28;20923;-69
2020/12/10 07:11:32;;;;;;;28.03;19.03;;;2.40;99.90;;;;;;5069372;28;20478;-69
2020/12/10 07:13:59;;;;;;;28.87;18.90;;;2.40;99.90;;;;;;5069888;28;20526;-69
2020/12/10 07:16:32;;;;;;;27.83;18.80;;;2.40;99.90;;;;;;5068839;28;20483;-69
2020/12/10 07:18:59;;;;;;;37.73;19.50;;;2.30;99.90;;;;;;5069721;28;20481;-69
2020/12/10 07:21:25;;;;;;;27.30;18.30;;;2.20;99.90;;;;;;5068796;28;20533;-69
2020/12/10 07:23:52;;;;;;;26.07;19.40;;;2.30;99.90;;;;;;5069417;28;20461;-69
2020/12/10 07:26:19;;;;;;;31.03;20.90;;;2.20;99.90;;;;;;5069561;28;20886;-69
2020/12/10 07:28:48;;;;;;;25.93;17.00;;;2.30;99.90;;;;;;5069648;28;20526;-69
2020/12/10 07:31:17;;;;;;;29.37;21.40;;;2.20;99.90;;;;;;5068732;28;20826;-67
2020/12/10 07:33:45;;;;;;;26.37;18.63;;;2.30;99.90;;;;;;5069456;28;20547;-70
2020/12/10 07:36:12;;;;;;;31.80;20.10;;;2.40;99.90;;;;;;5069250;28;20989;-68
2020/12/10 07:38:44;;;;;;;31.10;21.37;;;2.40;99.90;;;;;;5069429;28;20475;-68
2020/12/10 07:43:54;;;;;;;30.83;18.10;;;2.40;99.90;;;;;;5068956;28;20965;-70
2020/12/10 07:46:21;;;;;;;27.23;18.33;;;2.50;99.90;;;;;;5069201;28;20526;-68
2020/12/10 07:48:49;;;;;;;27.20;17.57;;;2.50;99.90;;;;;;5069435;28;20478;-68
2020/12/10 07:51:20;;;;;;;25.67;17.03;;;2.60;99.90;;;;;;5068591;28;20538;-69
2020/12/10 07:56:31;;;;;;;30.40;20.60;;;2.70;99.90;;;;;;5069193;28;20925;-69
2020/12/10 07:59:16;;;;;;;25.83;18.90;;;2.70;99.90;;;;;;5069060;28;20493;-68
2020/12/10 08:07:13;;;;;;;24.17;18.20;;;2.70;99.90;;;;;;5067398;28;20439;-67
2020/12/10 08:09:39;;;;;;;29.33;19.20;;;2.80;99.90;;;;;;5071048;28;20526;-68
2020/12/10 08:12:13;;;;;;;23.70;17.73;;;2.90;99.90;;;;;;5071467;28;20486;-68
2020/12/10 08:14:41;;;;;;;28.93;19.17;;;2.80;99.90;;;;;;5070868;28;20470;-68
2020/12/10 08:17:19;;;;;;;26.30;19.70;;;2.80;99.90;;;;;;5069125;28;21013;-68
2020/12/10 08:25:17;;;;;;;28.73;18.67;;;3.10;99.90;;;;;;5068989;28;20446;-69
2020/12/10 08:27:44;;;;;;;27.67;18.50;;;3.00;99.90;;;;;;5069234;28;20477;-67
2020/12/10 08:30:11;;;;;;;26.60;19.30;;;3.00;99.90;;;;;;5068338;28;20447;-68
2020/12/10 08:32:50;;;;;;;24.60;17.40;;;3.00;99.90;;;;;;5069241;28;20601;-68
2020/12/10 08:35:16;;;;;;;26.83;17.83;;;3.10;99.90;;;;;;5069119;28;20486;-68
2020/12/10 08:37:43;;;;;;;27.67;18.17;;;3.10;99.90;;;;;;5069174;28;20471;-68
2020/12/10 08:40:10;;;;;;;26.63;16.30;;;3.20;99.90;;;;;;5068664;28;20530;-68
2020/12/10 08:42:37;;;;;;;22.90;17.17;;;3.10;99.90;;;;;;5068642;28;20573;-69
2020/12/10 08:45:05;;;;;;;20.27;15.60;;;3.20;99.90;;;;;;5069313;28;20447;-70
2020/12/10 08:47:32;;;;;;;24.70;16.57;;;3.20;99.90;;;;;;5069132;28;20558;-70
2020/12/10 08:50:26;;;;;;;28.67;18.40;;;3.20;99.90;;;;;;5068467;28;20549;-69
2020/12/10 08:53:09;;;;;;;27.80;18.10;;;3.30;99.90;;;;;;5068962;28;20550;-70
2020/12/10 08:55:41;;;;;;;27.80;17.20;;;3.30;99.90;;;;;;5068990;28;20475;-70
2020/12/10 08:58:08;;;;;;;28.30;17.00;;;3.30;99.90;;;;;;5067613;28;20525;-69
2020/12/10 09:00:38;;;;;;;21.50;16.63;;;3.40;99.90;;;;;;5067427;28;20945;-70
2020/12/10 09:03:06;;;;;;;28.00;19.67;;;3.50;99.90;;;;;;5068285;28;20832;-69
2020/12/10 09:05:47;;;;;;;31.13;18.90;;;3.50;99.90;;;;;;5068165;28;20439;-70
2020/12/10 09:08:15;;;;;;;26.23;17.40;;;3.40;99.90;;;;;;5068056;28;20541;-70
2020/12/10 09:10:41;;;;;;;23.77;16.93;;;3.50;99.90;;;;;;5067613;28;20471;-69
2020/12/10 09:13:09;;;;;;;28.33;19.57;;;3.50;99.90;;;;;;5071174;28;20542;-70
2020/12/10 09:15:37;;;;;;;28.80;19.77;;;3.50;99.90;;;;;;5072021;28;20477;-68
2020/12/10 09:18:04;;;;;;;24.53;17.30;;;3.70;99.90;;;;;;5071870;28;20580;-70
2020/12/10 09:23:20;;;;;;;27.27;18.57;;;3.80;99.90;;;;;;5071427;28;20463;-69
2020/12/10 09:25:46;;;;;;;29.47;19.33;;;4.00;99.90;;;;;;5071717;28;20527;-69
2020/12/10 09:28:12;;;;;;;24.00;17.30;;;4.10;99.90;;;;;;5071754;28;20828;-70
2020/12/10 09:30:40;;;;;;;26.00;16.73;;;4.10;99.90;;;;;;5071217;28;20435;-69
2020/12/10 09:33:22;;;;;;;28.03;18.10;;;4.20;99.90;;;;;;5071586;28;20966;-69
2020/12/10 09:35:48;;;;;;;26.03;17.30;;;4.20;99.90;;;;;;5069085;28;20483;-70
2020/12/10 09:38:15;;;;;;;25.33;17.97;;;4.10;99.90;;;;;;5071650;28;20435;-69
2020/12/10 09:40:41;;;;;;;26.23;17.87;;;4.10;99.90;;;;;;5070886;28;20523;-69
2020/12/10 09:43:27;;;;;;;25.23;17.43;;;4.30;99.90;;;;;;5071283;28;21133;-69
2020/12/10 09:46:17;;;;;;;27.27;17.53;;;4.40;99.90;;;;;;5071275;28;20958;-69
2020/12/10 09:48:59;;;;;;;28.13;19.03;;;4.50;99.90;;;;;;5071443;28;20435;-70
2020/12/10 09:51:27;;;;;;;25.77;16.47;;;4.50;99.90;;;;;;5069782;28;20473;-69
2020/12/10 09:54:06;;;;;;;20.10;14.97;;;4.50;99.90;;;;;;5071516;28;20457;-70
2020/12/10 09:56:56;;;;;;;20.63;16.57;;;4.60;99.90;;;;;;5071250;28;20959;-69
2020/12/10 09:59:24;;;;;;;27.50;18.57;;;4.60;99.90;;;;;;5071179;28;20470;-70
2020/12/10 10:01:50;;;;;;;28.63;19.40;;;4.60;99.90;;;;;;5070654;28;20477;-69
2020/12/10 10:04:18;;;;;;;23.30;16.20;;;4.60;99.90;;;;;;5075862;28;20478;-69
2020/12/10 10:06:45;;;;;;;21.30;16.43;;;4.60;99.90;;;;;;5075145;28;20522;-70
2020/12/10 10:09:15;;;;;;;23.37;18.10;;;4.60;99.90;;;;;;5071992;28;20470;-69
2020/12/10 10:14:23;;;;;;;21.80;15.40;;;4.60;99.90;;;;;;5068861;28;20894;-68
2020/12/10 10:16:49;;;;;;;20.03;13.77;;;4.60;99.90;;;;;;5071117;28;20487;-68
2020/12/10 10:19:15;;;;;;;23.23;15.23;;;4.60;99.90;;;;;;5070975;28;20471;-70
2020/12/10 10:21:43;;;;;;;23.93;15.47;;;4.60;99.90;;;;;;5069895;28;20469;-70
2020/12/10 10:24:11;;;;;;;21.23;15.17;;;4.60;99.90;;;;;;5070084;28;20455;-71
2020/12/10 10:26:37;;;;;;;21.00;13.70;;;4.70;99.90;;;;;;5070845;28;20508;-70
2020/12/10 10:29:07;;;;;;;17.53;12.40;;;4.70;99.90;;;;;;5072027;28;20530;-71
2020/12/10 10:31:33;;;;;;;18.67;14.10;;;4.70;99.90;;;;;;5069767;28;20582;-68
2020/12/10 10:34:02;;;;;;;20.07;13.57;;;4.60;99.90;;;;;;5070375;28;20960;-70
2020/12/10 10:36:28;;;;;;;17.57;12.27;;;4.50;99.90;;;;;;5070335;28;21169;-70
2020/12/10 10:39:13;;;;;;;15.00;11.00;;;4.40;99.90;;;;;;5069356;28;20446;-71
2020/12/10 10:41:43;;;;;;;15.90;10.27;;;4.40;99.90;;;;;;5069698;28;20541;-71
2020/12/10 10:44:09;;;;;;;15.07;9.90;;;4.50;99.90;;;;;;5070361;28;20526;-72
2020/12/10 10:46:36;;;;;;;14.03;9.77;;;4.60;99.90;;;;;;5070509;28;20913;-70
2020/12/10 10:49:03;;;;;;;14.50;9.70;;;4.60;99.90;;;;;;5070321;28;20534;-70
2020/12/10 10:51:29;;;;;;;11.67;8.43;;;4.70;99.90;;;;;;5069253;28;20474;-70
2020/12/10 10:54:17;;;;;;;12.97;8.80;;;4.80;99.90;;;;;;5069731;28;20526;-71
2020/12/10 10:59:46;;;;;;;12.50;8.50;;;5.10;99.90;;;;;;5085671;28;20483;-69
2020/12/10 11:02:13;;;;;;;11.47;9.57;;;5.20;99.90;;;;;;5087025;28;20546;-71
2020/12/10 11:04:40;;;;;;;12.83;9.57;;;5.10;99.90;;;;;;5087976;28;20532;-70
2020/12/10 11:07:06;;;;;;;13.33;9.53;;;4.90;99.90;;;;;;5088328;28;20437;-69
2020/12/10 11:09:33;;;;;;;13.80;9.33;;;4.80;99.90;;;;;;5087625;28;20521;-68
2020/12/10 11:12:00;;;;;;;11.20;8.00;;;4.90;99.90;;;;;;5087148;28;20956;-70
2020/12/10 11:14:26;;;;;;;12.50;9.00;;;4.80;99.90;;;;;;5087980;28;20533;-68
2020/12/10 11:16:56;;;;;;;12.23;9.40;;;4.90;99.90;;;;;;5087197;28;20488;-68
2020/12/10 11:19:22;;;;;;;11.80;8.27;;;4.80;99.90;;;;;;5088136;28;20442;-69
2020/12/10 11:21:49;;;;;;;11.90;8.77;;;4.90;99.90;;;;;;5087071;28;20569;-67
2020/12/10 11:24:37;;;;;;;12.77;8.37;;;4.80;99.90;;;;;;5087444;28;20446;-67
2020/12/10 11:27:03;;;;;;;13.97;9.53;;;4.60;99.90;;;;;;5087606;28;20525;-67
2020/12/10 11:32:12;;;;;;;10.80;9.10;;;4.60;99.90;;;;;;5085819;28;20528;-67
2020/12/10 11:34:42;;;;;;;12.50;9.47;;;4.40;99.90;;;;;;5077691;28;20438;-68
2020/12/10 11:40:01;;;;;;;12.03;8.93;;;4.40;99.90;;;;;;5065039;28;20536;-68
2020/12/10 11:42:27;;;;;;;13.63;10.27;;;4.60;99.90;;;;;;5067226;28;20549;-69
2020/12/10 11:44:54;;;;;;;12.00;8.63;;;4.60;99.90;;;;;;5067401;28;20446;-67
2020/12/10 11:50:19;;;;;;;16.10;9.23;;;4.50;99.90;;;;;;5065984;28;20846;-71
2020/12/10 11:52:47;;;;;;;12.03;8.37;;;4.60;99.90;;;;;;5068309;28;20466;-70
2020/12/10 11:55:26;;;;;;;11.67;8.10;;;4.50;99.90;;;;;;5069145;28;20439;-70
2020/12/10 11:57:54;;;;;;;14.10;9.20;;;4.50;99.90;;;;;;5074540;28;21125;-69
2020/12/10 12:03:03;;;;;;;10.60;7.93;;;4.50;99.90;;;;;;5085690;28;20454;-69
2020/12/10 12:05:29;;;;;;;11.77;8.73;;;4.70;99.90;;;;;;5070487;28;20435;-69
2020/12/10 12:07:56;;;;;;;9.93;7.37;;;4.70;99.90;;;;;;5066267;28;20523;-68
2020/12/10 12:10:23;;;;;;;11.07;8.30;;;4.80;99.90;;;;;;5064730;28;20542;-69
2020/12/10 12:12:49;;;;;;;12.60;8.63;;;4.70;99.90;;;;;;5066875;28;20541;-69
2020/12/10 12:15:16;;;;;;;12.17;9.07;;;4.80;99.90;;;;;;5066998;28;20449;-68
2020/12/10 12:17:44;;;;;;;11.00;7.77;;;4.80;99.90;;;;;;5067156;28;20587;-68
2020/12/10 12:20:12;;;;;;;11.90;9.03;;;4.70;99.90;;;;;;5066539;28;20443;-68
2020/12/10 12:22:39;;;;;;;11.70;8.00;;;4.70;99.90;;;;;;5066697;28;20466;-69
2020/12/10 12:25:06;;;;;;;10.90;8.10;;;4.70;99.90;;;;;;5067265;28;21182;-69
2020/12/10 12:27:41;;;;;;;13.83;7.70;;;4.60;99.90;;;;;;5066951;28;20477;-69
2020/12/10 12:30:14;;;;;;;11.90;7.80;;;4.60;99.90;;;;;;5065202;28;20801;-68
2020/12/10 12:32:40;;;;;;;11.33;8.70;;;4.50;99.90;;;;;;5063914;28;20463;-69
2020/12/10 12:37:54;;;;;;;9.27;8.27;;;4.50;99.90;;;;;;5066126;28;20457;-66
2020/12/10 12:40:20;;;;;;;11.47;8.63;;;4.60;99.90;;;;;;5066045;28;20443;-67
2020/12/10 12:43:04;;;;;;;11.23;7.80;;;4.50;99.90;;;;;;5067479;28;20494;-67
2020/12/10 12:45:30;;;;;;;12.93;9.53;;;4.50;99.90;;;;;;5066530;28;20945;-69
2020/12/10 12:47:57;;;;;;;11.20;8.33;;;4.40;99.90;;;;;;5069493;28;20534;-69
2020/12/10 12:50:23;;;;;;;13.90;9.00;;;4.40;99.90;;;;;;5070042;28;20526;-72
2020/12/10 12:52:50;;;;;;;12.00;9.30;;;4.30;99.90;;;;;;5070592;28;20993;-69
2020/12/10 12:55:16;;;;;;;13.83;9.90;;;4.30;99.90;;;;;;5070820;28;20529;-69
2020/12/10 13:00:50;;;;;;;12.63;9.93;;;4.50;99.90;;;;;;5067164;28;20443;-69
2020/12/10 13:03:17;;;;;;;13.80;10.30;;;4.50;99.90;;;;;;5068831;28;20474;-68
2020/12/10 13:08:46;;;;;;;14.77;10.30;;;4.20;99.90;;;;;;5070805;28;21256;-68
2020/12/10 13:11:25;;;;;;;15.83;10.30;;;4.10;99.90;;;;;;5071146;28;20443;-69
2020/12/10 13:13:52;;;;;;;12.50;8.67;;;4.00;99.90;;;;;;5072118;28;20830;-68
2020/12/10 13:16:18;;;;;;;14.33;10.17;;;3.90;99.90;;;;;;5071435;28;20479;-68
2020/12/10 13:21:25;;;;;;;15.80;10.50;;;3.90;99.90;;;;;;5070629;28;20510;-68
2020/12/10 13:23:52;;;;;;;13.60;10.10;;;3.80;99.90;;;;;;5071732;28;20546;-68
2020/12/10 13:26:25;;;;;;;14.50;10.53;;;3.80;99.90;;;;;;5071835;28;20868;-67
2020/12/10 13:28:52;;;;;;;14.73;10.07;;;3.80;99.90;;;;;;5071712;28;20517;-68
2020/12/10 13:31:27;;;;;;;14.87;10.13;;;3.80;99.90;;;;;;5071458;28;20522;-68
2020/12/10 13:33:54;;;;;;;13.23;10.60;;;3.80;99.90;;;;;;5071568;28;20877;-67
2020/12/10 13:36:35;;;;;;;13.00;9.57;;;3.90;99.90;;;;;;5070285;28;20498;-65
2020/12/10 13:41:44;;;;;;;17.43;10.40;;;4.00;99.90;;;;;;5065545;28;20471;-66